Sturgeon Bay, WI

11:08 PM CDT on September 14, 2014 (GMT -0500)
Manitowoc County | Change Station
CLOSE
Current Station
Airport
Location: Manitowoc,
Elevation: 650 ft
Nearby Weather Stations

Elev 650 ft 44.13 °N, 87.68 °W | Updated 12 minutes ago

Mostly Cloudy
Mostly Cloudy
58 °F
Feels Like 58 °F
N
9
Wind Variable Wind from SW

Today
High -- | Low -- °F
--% Chance of Precip.
Yesterday
High -- | Low -- °F
Precip. -- in
6:27 AM 7:02 PM
Waning Gibbous, 59% visible
Pressure 30.18 in
Visibility 10.0 miles
Clouds Overcast 6000 ft
Dew Point 49 °F
Humidity 72%
Rainfall 0.00 in
Snow Depth Not available.
UV 0 out of 12
Pollen 4.40 out of 12
Air Quality Not available.
Flu Activity Not available.
METAR KMTW 150356Z AUTO 22008KT 10SM OVC060 14/09 A3011 RMK AO2 SLP218 T01440094

More Conditions Fewer Conditions

Pressure 30.18 in
Visibility 10.0 miles
Clouds Overcast 6000 ft
Dew Point 49 °F
Humidity 72%
Rainfall 0.00 in
Snow Depth Not available.
UV 0 out of 12
Pollen 4.40 out of 12
Air Quality Not available.
Flu Activity Not available.
METAR KMTW 150356Z AUTO 22008KT 10SM OVC060 14/09 A3011 RMK AO2 SLP218 T01440094

More Conditions Fewer Conditions

10-Day Weather Forecast

Almanac

Astronomy

Sep. 14, 2014 Rise Set
Actual Time 6:27 AM CDT 7:02 PM CDT
Civil Twilight 5:57 AM CDT 7:31 PM CDT
Nautical Twilight 5:22 AM CDT 8:06 PM CDT
Astronomical Twilight 4:46 AM CDT 8:42 PM CDT
Moon 10:39 PM CDT (9/14) 12:47 PM CDT (9/14)
Length of Visible Light 13h 33m
Length of Day
12h 35m
Tomorrow will be 3m 6s shorter.
Waning Gibbous, 59% of the Moon is Illuminated
Sep 15
Waning Gibbous
Sep 15
Last Quarter
Sep 24
New
Oct 1
First Quarter
Oct 8
Full

Today's Extremes

State Highs State Lows

Community

WunderPhotos

Upload Photos

1,753,398 photos uploaded!

Nearby

Snow Depth

Station Depth Elevation
No new snow has been reported.

Earthquake Activity

City Distance Mag. Time & Date
No recent earthquake activity has been reported nearby.
Minimum magnitude displayed is 2.5.

Coastal Water Temperatures

Place Temperature
Menominee, MI 62.1 °F

Nearby Weather Stations